createdAt,value
2019-01-18T00:04:07.214Z,16.03
2019-01-18T00:10:11.584Z,8.20
2019-01-18T00:16:15.864Z,11.63
2019-01-18T00:22:20.215Z,11.13
2019-01-18T00:28:24.628Z,8.30
2019-01-18T00:34:28.900Z,26.83
2019-01-18T00:40:33.181Z,14.93
2019-01-18T00:46:37.463Z,15.57
2019-01-18T00:52:41.973Z,8.83
2019-01-18T00:58:46.170Z,11.27
2019-01-18T01:04:50.443Z,8.17
2019-01-18T01:10:54.751Z,13.33
2019-01-18T01:16:59.026Z,12.13
2019-01-18T01:23:03.217Z,11.50
2019-01-18T01:29:07.511Z,8.23
2019-01-18T01:35:11.712Z,9.10
2019-01-18T01:41:15.940Z,11.03
2019-01-18T01:47:20.180Z,11.07
2019-01-18T01:53:24.493Z,16.90
2019-01-18T01:59:28.777Z,8.97
2019-01-18T02:05:33.130Z,12.03
2019-01-18T02:11:37.370Z,10.73
2019-01-18T02:17:41.630Z,12.30
2019-01-18T02:23:45.856Z,10.07
2019-01-18T02:29:56.416Z,8.23
2019-01-18T02:35:56.236Z,11.67
2019-01-18T02:42:00.735Z,13.03
2019-01-18T02:48:04.924Z,9.63
2019-01-18T02:54:09.272Z,11.27
2019-01-18T03:00:16.199Z,8.23
2019-01-18T03:06:20.418Z,8.93
2019-01-18T03:12:24.631Z,8.30
2019-01-18T03:18:28.846Z,9.83
2019-01-18T03:24:33.120Z,7.60
2019-01-18T03:30:37.387Z,7.53
2019-01-18T03:36:42.167Z,10.60
2019-01-18T03:42:46.761Z,9.50
2019-01-18T03:48:51.004Z,8.77
2019-01-18T03:54:55.202Z,13.17
2019-01-18T04:00:59.419Z,11.50
2019-01-18T04:07:03.721Z,10.90
2019-01-18T04:13:08.040Z,10.00
2019-01-18T04:19:12.318Z,11.50
2019-01-18T04:25:20.300Z,9.73
2019-01-18T04:31:24.698Z,14.77
2019-01-18T04:37:28.941Z,12.73
2019-01-18T04:43:33.313Z,14.03
2019-01-18T04:49:37.603Z,9.30
2019-01-18T04:55:41.883Z,8.63
2019-01-18T05:01:46.173Z,7.97
2019-01-18T05:07:50.468Z,9.13
2019-01-18T05:13:54.667Z,11.67
2019-01-18T05:19:58.870Z,11.07
2019-01-18T05:26:03.146Z,7.33
2019-01-18T05:32:07.580Z,8.03
2019-01-18T05:38:11.765Z,13.50
2019-01-18T05:44:16.050Z,13.97
2019-01-18T05:50:22.616Z,16.03
2019-01-18T05:56:26.839Z,17.37
2019-01-18T06:02:31.159Z,19.67
2019-01-18T06:08:35.414Z,15.93
2019-01-18T06:14:39.738Z,18.87
2019-01-18T06:20:44.040Z,13.63
2019-01-18T06:26:48.278Z,15.53
2019-01-18T06:32:52.551Z,14.70
2019-01-18T06:38:56.776Z,17.70
2019-01-18T06:45:01.030Z,12.63
2019-01-18T06:51:05.284Z,19.20
2019-01-18T06:57:09.465Z,17.43
2019-01-18T07:03:13.863Z,10.83
2019-01-18T07:09:18.060Z,12.97
2019-01-18T07:15:22.538Z,11.93
2019-01-18T07:21:26.839Z,11.77
2019-01-18T07:27:31.135Z,12.33
2019-01-18T07:33:35.324Z,13.87
2019-01-18T07:39:39.563Z,14.70
2019-01-18T07:45:43.807Z,15.70
2019-01-18T07:51:48.163Z,14.47
2019-01-18T07:57:52.493Z,12.87
2019-01-18T08:03:56.699Z,18.70
2019-01-18T08:10:00.887Z,18.87
2019-01-18T08:16:05.211Z,18.53
2019-01-18T08:22:09.539Z,20.37
2019-01-18T08:28:13.885Z,21.87
2019-01-18T08:34:18.192Z,19.63
2019-01-18T08:40:27.653Z,19.33
2019-01-18T08:46:31.952Z,18.87
2019-01-18T08:52:36.258Z,18.20
2019-01-18T08:58:40.503Z,17.33
2019-01-18T09:04:44.810Z,19.53
2019-01-18T09:10:49.020Z,17.50
2019-01-18T09:16:53.228Z,17.33
2019-01-18T09:22:57.572Z,21.93
2019-01-18T09:29:01.774Z,21.37
2019-01-18T09:35:07.730Z,19.63
2019-01-18T09:41:11.915Z,18.27
2019-01-18T09:47:16.140Z,22.27
2019-01-18T09:53:20.455Z,21.53
2019-01-18T09:59:24.687Z,29.03
2019-01-18T10:05:29.116Z,25.27
2019-01-18T10:11:33.340Z,31.10
2019-01-18T10:17:37.620Z,28.87
2019-01-18T10:23:41.797Z,27.03
2019-01-18T10:29:46.212Z,25.57
2019-01-18T10:35:50.437Z,26.33
2019-01-18T10:41:54.778Z,24.97
2019-01-18T10:48:00.003Z,24.30
2019-01-18T10:54:04.426Z,22.97
2019-01-18T11:00:12.841Z,25.30
2019-01-18T11:06:17.128Z,26.23
2019-01-18T11:12:21.513Z,24.80
2019-01-18T11:18:27.257Z,29.60
2019-01-18T11:24:31.462Z,25.93
2019-01-18T11:30:35.691Z,25.93
2019-01-18T11:36:39.966Z,22.03
2019-01-18T11:42:44.181Z,28.27
2019-01-18T11:48:50.380Z,22.60
2019-01-18T11:54:54.311Z,18.13
2019-01-18T12:00:58.579Z,21.00
2019-01-18T12:07:02.795Z,25.13
2019-01-18T12:13:07.087Z,28.27
2019-01-18T12:19:11.353Z,21.63
2019-01-18T12:25:15.671Z,18.17
2019-01-18T12:31:19.859Z,17.67
2019-01-18T12:37:24.159Z,16.83
2019-01-18T12:43:29.248Z,21.07
2019-01-18T12:49:33.443Z,23.13
2019-01-18T12:55:37.877Z,20.27
2019-01-18T13:01:42.372Z,21.03
2019-01-18T13:07:47.632Z,22.05
2019-01-18T13:13:51.822Z,26.27
2019-01-18T13:19:56.023Z,25.03
2019-01-18T13:26:00.426Z,27.47
2019-01-18T13:32:04.786Z,33.17
2019-01-18T13:38:09.001Z,30.77
2019-01-18T13:44:13.393Z,39.83
2019-01-18T13:50:18.028Z,18.73
2019-01-18T13:56:22.285Z,18.80
2019-01-18T14:02:26.570Z,14.20
2019-01-18T14:08:30.914Z,17.50
2019-01-18T14:14:35.189Z,15.87
2019-01-18T14:20:39.455Z,20.87
2019-01-18T14:26:43.670Z,18.17
2019-01-18T14:32:47.941Z,20.62
2019-01-18T14:38:52.233Z,18.98
2019-01-18T14:44:57.507Z,15.63
2019-01-18T14:51:01.844Z,14.47
2019-01-18T14:57:06.149Z,21.17
2019-01-18T15:03:10.555Z,24.83
2019-01-18T15:09:14.799Z,18.93
2019-01-18T15:15:19.448Z,18.27
2019-01-18T15:21:23.653Z,18.13
2019-01-18T15:27:27.965Z,20.83
2019-01-18T15:33:32.187Z,21.67
2019-01-18T15:39:36.467Z,19.37
2019-01-18T15:45:40.680Z,17.93
2019-01-18T15:51:44.950Z,23.50
2019-01-18T15:57:49.159Z,20.67
2019-01-18T16:03:53.761Z,26.57
2019-01-18T16:09:57.977Z,22.43
2019-01-18T16:16:22.037Z,27.57
2019-01-18T16:22:26.648Z,22.30
2019-01-18T16:28:30.867Z,24.53
2019-01-18T16:34:35.073Z,29.43
2019-01-18T16:40:39.300Z,32.13
2019-01-18T16:46:43.549Z,41.40
2019-01-18T16:52:47.943Z,38.57
2019-01-18T16:58:52.239Z,33.87
2019-01-18T17:04:56.509Z,30.50
2019-01-18T17:11:00.720Z,33.93
2019-01-18T17:17:05.361Z,33.97
2019-01-18T17:23:09.763Z,32.50
2019-01-18T17:29:14.049Z,37.47
2019-01-18T17:35:24.454Z,30.47
2019-01-18T17:42:17.404Z,46.07
2019-01-18T17:48:43.947Z,36.07
2019-01-18T17:54:56.332Z,29.57
2019-01-18T18:01:33.298Z,73.70
2019-01-18T18:08:32.887Z,31.47
2019-01-18T18:14:57.418Z,26.67
2019-01-18T18:21:39.318Z,26.97
2019-01-18T18:28:38.208Z,25.90
2019-01-18T18:35:28.686Z,24.13
2019-01-18T18:42:13.306Z,23.87
2019-01-18T18:48:46.089Z,27.63
2019-01-18T18:55:33.740Z,71.83
2019-01-18T19:02:03.068Z,64.50
2019-01-18T19:08:59.175Z,36.37
2019-01-18T19:15:43.197Z,102.17
2019-01-18T19:22:34.445Z,27.90
2019-01-18T19:29:34.585Z,27.73
2019-01-18T19:35:49.821Z,33.60
2019-01-18T19:42:50.083Z,36.37
2019-01-18T19:49:36.789Z,31.30
2019-01-18T19:56:29.751Z,31.73
2019-01-18T20:02:41.401Z,64.93
2019-01-18T20:08:58.835Z,92.00
2019-01-18T20:15:31.455Z,198.07
2019-01-18T20:22:11.177Z,282.13
2019-01-18T20:28:28.177Z,242.57
2019-01-18T20:34:58.724Z,134.00
2019-01-18T20:41:46.766Z,44.37
2019-01-18T20:48:37.933Z,40.43
2019-01-18T20:55:33.596Z,44.40
2019-01-18T21:01:59.676Z,50.57
2019-01-18T21:08:52.541Z,51.93
2019-01-18T21:15:27.350Z,79.17
2019-01-18T21:22:14.070Z,145.13
2019-01-18T21:29:11.108Z,161.17
2019-01-18T21:35:58.156Z,54.47
2019-01-18T21:42:15.162Z,27.57
2019-01-18T21:48:44.347Z,32.97
2019-01-18T21:55:12.337Z,30.57
2019-01-18T22:01:30.449Z,31.53
2019-01-18T22:07:56.857Z,27.40
2019-01-18T22:14:21.975Z,29.47
2019-01-18T22:21:20.285Z,24.67
2019-01-18T22:27:38.753Z,28.73
2019-01-18T22:33:57.509Z,27.23
2019-01-18T22:40:41.813Z,30.93
2019-01-18T22:47:11.371Z,29.17
2019-01-18T22:53:31.760Z,25.87
2019-01-18T23:00:30.230Z,32.90
2019-01-18T23:07:20.989Z,28.30
2019-01-18T23:13:55.894Z,28.43
2019-01-18T23:20:41.159Z,29.17
2019-01-18T23:27:17.658Z,29.33
2019-01-18T23:33:43.314Z,29.63
2019-01-18T23:40:21.134Z,27.93
2019-01-18T23:47:13.793Z,26.87
2019-01-18T23:53:36.521Z,28.40
